Time;durP1;ratioP1;P1;durP2;ratioP2;P2;SDS_P1;SDS_P2;PMS_P1;PMS_P2;Temp;Humidity;BMP_temperature;BMP_pressure;BME280_temperature;BME280_humidity;BME280_pressure;Samples;Min_cycle;Max_cycle;Signal;HPM_P1;HPM_P2
2020/12/31 00:00:04;;;;;;;1.00;0.70;;;3.30;99.90;;;;;;5094211;28;20500;-57
2020/12/31 00:02:31;;;;;;;1.20;0.70;;;3.30;99.90;;;;;;5094748;28;20470;-58
2020/12/31 00:04:58;;;;;;;1.00;0.70;;;3.20;99.90;;;;;;5095576;28;20897;-58
2020/12/31 00:07:25;;;;;;;1.15;0.70;;;3.20;99.90;;;;;;5094966;28;20453;-57
2020/12/31 00:09:52;;;;;;;1.67;0.70;;;3.20;99.90;;;;;;5095383;28;20490;-57
2020/12/31 00:12:19;;;;;;;1.30;0.70;;;3.20;99.90;;;;;;5095329;28;20967;-58
2020/12/31 00:14:45;;;;;;;1.00;0.70;;;3.10;99.90;;;;;;5086577;28;20426;-58
2020/12/31 00:17:12;;;;;;;1.08;0.70;;;3.10;99.90;;;;;;5094236;28;20422;-58
2020/12/31 00:19:39;;;;;;;1.70;0.90;;;3.10;99.90;;;;;;5094338;28;20413;-57
2020/12/31 00:22:06;;;;;;;1.33;0.80;;;3.10;99.90;;;;;;5095994;28;20728;-58
2020/12/31 00:24:35;;;;;;;1.80;1.00;;;3.10;99.90;;;;;;5096754;28;20501;-58
2020/12/31 00:27:01;;;;;;;1.10;0.80;;;3.10;99.90;;;;;;5096319;28;20461;-58
2020/12/31 00:29:28;;;;;;;1.30;0.80;;;3.20;99.90;;;;;;5096402;28;20559;-58
2020/12/31 00:31:55;;;;;;;1.45;0.70;;;3.20;99.90;;;;;;5095220;28;20420;-57
2020/12/31 00:34:21;;;;;;;1.63;0.70;;;3.30;99.90;;;;;;5095484;28;20609;-58
2020/12/31 00:36:50;;;;;;;1.10;0.60;;;3.20;99.90;;;;;;5095667;28;20862;-56
2020/12/31 00:39:16;;;;;;;0.80;0.50;;;3.30;99.90;;;;;;5095409;28;20709;-57
2020/12/31 00:41:44;;;;;;;1.00;0.60;;;3.30;99.90;;;;;;5095143;28;20713;-58
2020/12/31 00:44:11;;;;;;;1.10;0.70;;;3.40;99.90;;;;;;5095122;28;20418;-58
2020/12/31 00:46:38;;;;;;;1.50;0.70;;;3.30;99.90;;;;;;5096456;28;20824;-57
2020/12/31 00:49:05;;;;;;;1.90;0.70;;;3.10;99.90;;;;;;5095291;28;20498;-54
2020/12/31 00:51:32;;;;;;;1.48;0.70;;;3.00;99.90;;;;;;5095836;28;20686;-55
2020/12/31 00:53:58;;;;;;;1.27;0.70;;;3.00;99.90;;;;;;5095679;28;20434;-58
2020/12/31 00:56:25;;;;;;;1.20;0.60;;;2.90;99.90;;;;;;5095972;28;20430;-57
2020/12/31 00:58:53;;;;;;;1.10;0.60;;;2.90;99.90;;;;;;5096359;28;20424;-55
2020/12/31 01:01:20;;;;;;;3.10;0.70;;;2.90;99.90;;;;;;5094254;28;20771;-56
2020/12/31 01:03:47;;;;;;;0.93;0.50;;;3.00;99.90;;;;;;5094768;28;20494;-57
2020/12/31 01:06:13;;;;;;;0.80;0.50;;;3.00;99.90;;;;;;5094531;28;20724;-58
2020/12/31 01:08:40;;;;;;;0.90;0.50;;;3.00;99.90;;;;;;5094205;28;20687;-58
2020/12/31 01:11:07;;;;;;;1.00;0.60;;;3.00;99.90;;;;;;5094286;28;20532;-57
2020/12/31 01:13:34;;;;;;;0.90;0.60;;;3.10;99.90;;;;;;5094741;28;20849;-58
2020/12/31 01:16:01;;;;;;;1.00;0.50;;;3.10;99.90;;;;;;5095322;28;20520;-56
2020/12/31 01:18:28;;;;;;;0.90;0.50;;;3.10;99.90;;;;;;5095810;28;20744;-58
2020/12/31 01:20:55;;;;;;;0.90;0.50;;;3.10;99.90;;;;;;5095768;28;20735;-58
2020/12/31 01:23:22;;;;;;;0.85;0.55;;;3.20;99.90;;;;;;5093345;28;20456;-57
2020/12/31 01:25:51;;;;;;;0.80;0.50;;;3.20;99.90;;;;;;5092151;28;20418;-57
2020/12/31 01:28:18;;;;;;;0.73;0.50;;;3.10;99.90;;;;;;5092701;28;20467;-57
2020/12/31 01:30:45;;;;;;;1.00;0.60;;;3.00;99.90;;;;;;5093305;28;20422;-58
2020/12/31 01:33:13;;;;;;;1.17;0.57;;;3.00;99.90;;;;;;5094665;28;20441;-57
2020/12/31 01:35:40;;;;;;;1.00;0.60;;;2.90;99.90;;;;;;5094176;28;20537;-57
2020/12/31 01:38:07;;;;;;;1.30;0.40;;;2.80;99.90;;;;;;5094303;28;20424;-57
2020/12/31 01:40:33;;;;;;;0.95;0.50;;;2.80;99.90;;;;;;5095455;28;20479;-57
2020/12/31 01:43:00;;;;;;;0.80;0.50;;;2.70;99.90;;;;;;5095820;28;20426;-58
2020/12/31 01:45:27;;;;;;;1.10;0.52;;;2.70;99.90;;;;;;5095588;28;20486;-58
2020/12/31 01:47:54;;;;;;;1.20;0.50;;;2.70;99.90;;;;;;5094279;28;20521;-58
2020/12/31 01:50:21;;;;;;;0.90;0.55;;;2.60;99.90;;;;;;5095545;28;20428;-57
2020/12/31 01:52:49;;;;;;;1.10;0.57;;;2.60;99.90;;;;;;5095811;28;20433;-58
2020/12/31 01:55:16;;;;;;;1.10;0.60;;;2.60;99.90;;;;;;5095714;28;20430;-58
2020/12/31 01:57:43;;;;;;;0.90;0.60;;;2.60;99.90;;;;;;5094794;28;20804;-57
2020/12/31 02:00:10;;;;;;;0.80;0.50;;;2.50;99.90;;;;;;5095146;28;20729;-58
2020/12/31 02:02:37;;;;;;;2.50;0.60;;;2.40;99.90;;;;;;5095458;28;20406;-58
2020/12/31 02:05:04;;;;;;;1.85;0.70;;;2.40;99.90;;;;;;5095524;28;20436;-58
2020/12/31 02:07:32;;;;;;;1.33;0.60;;;2.40;99.90;;;;;;5094756;28;20481;-57
2020/12/31 02:09:58;;;;;;;1.50;0.50;;;2.40;99.90;;;;;;5095085;28;20863;-57
2020/12/31 02:12:26;;;;;;;1.50;0.60;;;2.40;99.90;;;;;;5094227;28;20550;-56
2020/12/31 02:14:53;;;;;;;1.42;0.60;;;2.50;99.90;;;;;;5095168;28;20432;-58
2020/12/31 02:17:20;;;;;;;2.30;0.70;;;2.70;99.90;;;;;;5095078;28;20483;-55
2020/12/31 02:19:47;;;;;;;1.00;0.60;;;2.70;99.90;;;;;;5095275;28;20920;-57
2020/12/31 02:22:15;;;;;;;1.00;0.60;;;2.70;99.90;;;;;;5095183;28;20449;-57
2020/12/31 02:24:42;;;;;;;1.10;0.60;;;2.70;99.90;;;;;;5095312;28;20456;-58
2020/12/31 02:27:09;;;;;;;1.40;0.60;;;3.00;99.90;;;;;;5094731;28;20425;-57
2020/12/31 02:29:36;;;;;;;1.50;0.70;;;2.90;99.90;;;;;;5095089;28;20512;-58
2020/12/31 02:32:03;;;;;;;1.15;0.60;;;2.90;99.90;;;;;;5093827;28;20428;-56
2020/12/31 02:34:29;;;;;;;0.90;0.60;;;3.00;99.90;;;;;;5094915;28;20437;-57
2020/12/31 02:36:56;;;;;;;0.80;0.60;;;3.00;99.90;;;;;;5094450;28;20486;-58
2020/12/31 02:39:24;;;;;;;1.33;0.65;;;3.00;99.90;;;;;;5094596;28;20819;-58
2020/12/31 02:41:51;;;;;;;1.30;0.60;;;3.00;99.90;;;;;;5094560;28;20521;-58
2020/12/31 02:44:18;;;;;;;1.00;0.60;;;3.10;99.90;;;;;;5093923;28;20508;-56
2020/12/31 02:46:44;;;;;;;1.70;0.60;;;3.10;99.90;;;;;;5094930;28;20426;-57
2020/12/31 02:49:11;;;;;;;1.23;0.60;;;3.00;99.90;;;;;;5094994;28;20519;-59
2020/12/31 02:51:38;;;;;;;1.10;0.60;;;3.10;99.90;;;;;;5094486;28;20497;-58
2020/12/31 02:54:05;;;;;;;1.00;0.60;;;3.10;99.90;;;;;;5094792;28;20434;-58
2020/12/31 02:56:32;;;;;;;1.10;0.68;;;3.10;99.90;;;;;;5094703;28;20421;-55
2020/12/31 02:58:59;;;;;;;1.40;0.70;;;3.10;99.90;;;;;;5094201;28;20420;-56
2020/12/31 03:01:26;;;;;;;2.60;0.70;;;2.90;99.90;;;;;;5094788;28;20471;-56
2020/12/31 03:03:53;;;;;;;2.30;0.60;;;2.80;99.90;;;;;;5095117;28;20422;-55
2020/12/31 03:06:20;;;;;;;1.00;0.60;;;2.90;99.90;;;;;;5094427;28;20906;-56
2020/12/31 03:08:47;;;;;;;1.10;0.60;;;3.00;99.90;;;;;;5094384;28;20486;-55
2020/12/31 03:11:16;;;;;;;1.00;0.57;;;3.00;99.90;;;;;;5093812;28;20463;-56
2020/12/31 03:13:44;;;;;;;1.10;0.60;;;3.00;99.90;;;;;;5094350;28;20532;-55
2020/12/31 03:16:10;;;;;;;1.20;0.60;;;3.10;99.90;;;;;;5094511;28;20433;-53
2020/12/31 03:18:37;;;;;;;1.15;0.80;;;3.10;99.90;;;;;;5094453;28;20852;-56
2020/12/31 03:21:04;;;;;;;1.20;0.60;;;3.00;99.90;;;;;;5094133;28;20429;-55
2020/12/31 03:23:31;;;;;;;0.90;0.60;;;3.00;99.90;;;;;;5094476;28;20547;-56
2020/12/31 03:25:58;;;;;;;1.10;0.63;;;3.10;99.90;;;;;;5094626;28;20512;-55
2020/12/31 03:28:24;;;;;;;1.40;0.60;;;3.10;99.90;;;;;;5094418;28;20851;-56
2020/12/31 03:30:52;;;;;;;1.00;0.60;;;3.20;99.90;;;;;;5094029;28;20486;-55
2020/12/31 03:33:19;;;;;;;0.98;0.68;;;3.20;99.90;;;;;;5094083;28;20491;-54
2020/12/31 03:35:46;;;;;;;0.95;0.60;;;3.20;99.90;;;;;;5094600;28;20425;-54
2020/12/31 03:38:15;;;;;;;1.00;0.60;;;3.20;99.90;;;;;;5093794;28;20429;-56
2020/12/31 03:40:42;;;;;;;1.00;0.60;;;3.50;99.90;;;;;;5093577;28;20417;-56
2020/12/31 03:43:09;;;;;;;1.40;0.60;;;3.70;99.90;;;;;;5093657;28;20528;-55
2020/12/31 03:45:37;;;;;;;1.00;0.50;;;3.60;99.90;;;;;;5093676;28;20484;-56
2020/12/31 03:48:05;;;;;;;1.70;0.60;;;3.60;99.90;;;;;;5093645;28;20432;-56
2020/12/31 03:50:32;;;;;;;1.30;0.70;;;3.40;99.90;;;;;;5097142;28;20913;-54
2020/12/31 03:52:59;;;;;;;0.90;0.60;;;3.30;99.90;;;;;;5097819;28;20435;-56
2020/12/31 03:55:26;;;;;;;1.70;0.60;;;3.20;99.90;;;;;;5097922;28;20432;-55
2020/12/31 03:57:53;;;;;;;1.00;0.70;;;3.20;99.90;;;;;;5097019;28;20518;-56
2020/12/31 04:00:20;;;;;;;1.10;0.60;;;2.90;99.90;;;;;;5096448;28;20493;-56
2020/12/31 04:02:46;;;;;;;1.10;0.70;;;2.90;99.90;;;;;;5096525;28;20422;-56
2020/12/31 04:05:14;;;;;;;1.00;0.60;;;2.70;99.90;;;;;;5095919;28;20511;-56
2020/12/31 04:07:41;;;;;;;1.02;0.57;;;2.60;99.90;;;;;;5096464;28;20425;-56
2020/12/31 04:10:07;;;;;;;0.90;0.60;;;2.60;99.90;;;;;;5096184;28;20740;-55
2020/12/31 04:12:34;;;;;;;1.10;0.70;;;2.50;99.90;;;;;;5095732;28;20521;-56
2020/12/31 04:15:01;;;;;;;1.00;0.60;;;2.40;99.90;;;;;;5095836;28;20866;-54
2020/12/31 04:17:28;;;;;;;1.00;0.50;;;2.30;99.90;;;;;;5096180;28;20428;-56
2020/12/31 04:19:54;;;;;;;1.40;0.60;;;2.30;99.90;;;;;;5097359;28;20508;-55
2020/12/31 04:22:22;;;;;;;1.27;0.60;;;2.30;99.90;;;;;;5097583;28;20421;-56
2020/12/31 04:24:50;;;;;;;0.93;0.60;;;2.20;99.90;;;;;;5097478;28;20732;-56
2020/12/31 04:27:17;;;;;;;1.20;0.60;;;2.40;99.90;;;;;;5097205;28;20767;-56
2020/12/31 04:29:44;;;;;;;0.70;0.50;;;2.40;99.90;;;;;;5088298;28;20430;-56
2020/12/31 04:32:11;;;;;;;0.80;0.50;;;2.30;99.90;;;;;;5096243;28;20414;-56
2020/12/31 04:34:37;;;;;;;1.10;0.50;;;2.10;99.90;;;;;;5096613;28;20540;-55
2020/12/31 04:37:04;;;;;;;0.80;0.50;;;2.20;99.90;;;;;;5096376;28;20433;-57
2020/12/31 04:39:32;;;;;;;0.80;0.50;;;2.30;99.90;;;;;;5097072;28;20770;-56
2020/12/31 04:41:59;;;;;;;1.00;0.60;;;2.40;99.90;;;;;;5096680;28;20528;-57
2020/12/31 04:44:26;;;;;;;1.00;0.60;;;2.40;99.90;;;;;;5096606;28;20864;-56
2020/12/31 04:46:55;;;;;;;1.00;0.60;;;2.40;99.90;;;;;;5096827;28;20418;-55
2020/12/31 04:49:26;;;;;;;0.82;0.50;;;2.50;99.90;;;;;;5097142;28;20436;-56
2020/12/31 04:51:55;;;;;;;0.90;0.50;;;2.90;99.90;;;;;;5096891;28;20418;-54
2020/12/31 04:54:22;;;;;;;1.00;0.52;;;3.10;99.90;;;;;;5096933;28;20917;-54
2020/12/31 04:56:51;;;;;;;0.80;0.50;;;3.10;99.90;;;;;;5096373;28;20502;-57
2020/12/31 04:59:18;;;;;;;1.00;0.60;;;3.00;99.90;;;;;;5096728;28;20429;-56
2020/12/31 05:01:45;;;;;;;1.10;0.50;;;2.80;99.90;;;;;;5095611;28;20424;-55
2020/12/31 05:04:13;;;;;;;0.90;0.50;;;2.50;99.90;;;;;;5096677;28;20437;-55
2020/12/31 05:06:41;;;;;;;0.90;0.40;;;2.20;99.90;;;;;;5096704;28;20426;-54
2020/12/31 05:09:18;;;;;;;0.93;0.40;;;2.10;99.90;;;;;;5096206;28;20504;-56
2020/12/31 05:11:46;;;;;;;1.00;0.50;;;2.00;99.90;;;;;;5096146;28;20440;-56
2020/12/31 05:14:14;;;;;;;1.30;0.50;;;2.10;99.90;;;;;;5096491;28;20432;-56
2020/12/31 05:16:41;;;;;;;0.90;0.50;;;2.30;99.90;;;;;;5095949;28;20502;-56
2020/12/31 05:19:21;;;;;;;1.27;0.50;;;2.30;99.90;;;;;;5095925;28;20482;-56
2020/12/31 05:21:48;;;;;;;1.10;0.50;;;2.10;99.90;;;;;;5094530;28;20437;-57
2020/12/31 05:24:15;;;;;;;0.70;0.40;;;2.00;99.90;;;;;;5095227;28;20521;-56
2020/12/31 05:26:42;;;;;;;0.90;0.50;;;2.10;99.90;;;;;;5094471;28;20847;-56
2020/12/31 05:29:09;;;;;;;1.20;0.50;;;2.00;99.90;;;;;;5093998;28;20428;-54
2020/12/31 05:31:55;;;;;;;0.90;0.50;;;2.20;99.90;;;;;;5093853;28;20525;-55
2020/12/31 05:34:30;;;;;;;0.70;0.40;;;2.30;99.90;;;;;;5093993;28;20425;-57
2020/12/31 05:37:14;;;;;;;0.90;0.40;;;2.60;99.90;;;;;;5094789;28;20432;-57
2020/12/31 05:39:58;;;;;;;0.90;0.50;;;2.90;99.90;;;;;;5094484;28;20429;-56
2020/12/31 05:42:26;;;;;;;0.80;0.50;;;2.90;99.90;;;;;;5094376;28;20422;-56
2020/12/31 05:45:08;;;;;;;0.80;0.50;;;2.80;99.90;;;;;;5094067;28;20941;-57
2020/12/31 05:47:36;;;;;;;0.80;0.40;;;2.50;99.90;;;;;;5092830;28;20840;-56
2020/12/31 05:50:16;;;;;;;0.80;0.50;;;2.30;99.90;;;;;;5092414;28;20416;-58
2020/12/31 05:52:42;;;;;;;0.90;0.40;;;2.20;99.90;;;;;;5093199;28;20426;-55
2020/12/31 05:55:10;;;;;;;0.88;0.50;;;1.90;99.90;;;;;;5094146;28;20702;-56
2020/12/31 05:57:57;;;;;;;0.65;0.40;;;1.80;99.90;;;;;;5093646;28;20429;-56
2020/12/31 06:00:25;;;;;;;0.90;0.50;;;1.90;99.90;;;;;;5087595;28;20434;-54
2020/12/31 06:02:55;;;;;;;1.00;0.40;;;1.90;99.90;;;;;;5094186;28;20701;-56
2020/12/31 06:05:22;;;;;;;0.80;0.40;;;1.80;99.90;;;;;;5095676;28;20884;-53
2020/12/31 06:07:51;;;;;;;0.80;0.40;;;1.70;99.90;;;;;;5094873;28;20425;-54
2020/12/31 06:10:24;;;;;;;1.00;0.50;;;1.60;99.90;;;;;;5094979;28;20425;-56
2020/12/31 06:12:56;;;;;;;0.93;0.50;;;1.70;99.90;;;;;;5094238;28;20747;-55
2020/12/31 06:15:25;;;;;;;0.80;0.40;;;1.70;99.90;;;;;;5095730;28;20430;-56
2020/12/31 06:17:54;;;;;;;0.80;0.40;;;1.70;99.90;;;;;;5095437;28;20500;-55
2020/12/31 06:20:22;;;;;;;0.80;0.50;;;2.00;99.90;;;;;;5093618;28;20504;-56
2020/12/31 06:23:05;;;;;;;1.40;0.50;;;2.00;99.90;;;;;;5092796;28;20704;-55
2020/12/31 06:25:42;;;;;;;0.88;0.50;;;2.20;99.90;;;;;;5091324;28;20430;-54
2020/12/31 06:28:11;;;;;;;0.90;0.50;;;2.40;99.90;;;;;;5093951;28;20438;-56
2020/12/31 06:30:40;;;;;;;1.00;0.60;;;2.50;99.90;;;;;;5093541;28;20438;-56
2020/12/31 06:33:23;;;;;;;0.95;0.60;;;2.30;99.90;;;;;;5093366;28;20436;-55
2020/12/31 06:35:57;;;;;;;0.90;0.50;;;2.20;99.90;;;;;;5094289;28;20794;-54
2020/12/31 06:38:38;;;;;;;1.20;0.50;;;2.00;99.90;;;;;;5094419;28;20769;-56
2020/12/31 06:41:26;;;;;;;0.80;0.50;;;2.00;99.90;;;;;;5094749;28;20417;-56
2020/12/31 06:44:06;;;;;;;0.82;0.50;;;2.00;99.90;;;;;;5095156;28;20884;-56
2020/12/31 06:46:40;;;;;;;1.10;0.60;;;1.90;99.90;;;;;;5094879;28;20444;-56
2020/12/31 06:49:08;;;;;;;1.00;0.60;;;1.90;99.90;;;;;;5093780;28;20429;-57
2020/12/31 06:51:35;;;;;;;0.90;0.50;;;2.00;99.90;;;;;;5093772;28;20759;-56
2020/12/31 06:54:02;;;;;;;0.90;0.50;;;2.00;99.90;;;;;;5094251;28;20436;-56
2020/12/31 06:56:44;;;;;;;0.73;0.50;;;2.00;99.90;;;;;;5093991;28;20732;-56
2020/12/31 06:59:26;;;;;;;0.90;0.60;;;2.00;99.90;;;;;;5094079;28;20424;-57
2020/12/31 07:01:54;;;;;;;1.00;0.60;;;1.80;99.90;;;;;;5085677;28;20474;-55
2020/12/31 07:04:35;;;;;;;0.90;0.60;;;1.70;99.90;;;;;;5094297;28;20409;-55
2020/12/31 07:07:24;;;;;;;1.17;0.60;;;1.60;99.90;;;;;;5093138;28;20425;-53
2020/12/31 07:09:52;;;;;;;1.30;0.60;;;1.60;99.90;;;;;;5092659;28;20492;-57
2020/12/31 07:12:32;;;;;;;1.58;0.63;;;1.50;99.90;;;;;;5092714;28;20433;-56
2020/12/31 07:14:59;;;;;;;1.33;0.70;;;1.50;99.90;;;;;;5092520;28;20553;-56
2020/12/31 07:17:31;;;;;;;1.70;1.00;;;1.60;99.90;;;;;;5092844;28;20720;-57
2020/12/31 07:20:00;;;;;;;2.43;1.23;;;1.60;99.90;;;;;;5093200;28;20500;-58
2020/12/31 07:22:29;;;;;;;1.40;0.70;;;1.60;99.90;;;;;;5094459;28;20424;-57
2020/12/31 07:25:00;;;;;;;1.30;0.73;;;1.50;99.90;;;;;;5097228;28;20436;-55
2020/12/31 07:27:29;;;;;;;1.30;0.80;;;2.10;99.90;;;;;;5098308;28;20524;-53
2020/12/31 07:29:57;;;;;;;1.17;0.70;;;1.90;99.90;;;;;;5098347;28;20706;-56
2020/12/31 07:32:59;;;;;;;1.30;0.80;;;1.90;99.90;;;;;;5097964;28;20505;-56
2020/12/31 07:35:32;;;;;;;1.33;0.70;;;1.80;99.90;;;;;;5098053;28;20712;-56
2020/12/31 07:38:01;;;;;;;1.30;0.80;;;1.70;99.90;;;;;;5097889;28;20417;-57
2020/12/31 07:40:29;;;;;;;1.70;0.80;;;1.70;99.90;;;;;;5097737;28;20486;-53
2020/12/31 07:42:56;;;;;;;1.35;0.80;;;1.80;99.90;;;;;;5096300;28;20826;-56
2020/12/31 07:45:23;;;;;;;1.58;0.80;;;2.20;99.90;;;;;;5096642;28;20742;-56
2020/12/31 07:47:51;;;;;;;1.33;0.70;;;2.20;99.90;;;;;;5097694;28;20465;-54
2020/12/31 07:50:18;;;;;;;1.52;0.90;;;2.10;99.90;;;;;;5096669;28;20418;-57
2020/12/31 07:52:46;;;;;;;1.30;0.80;;;2.10;99.90;;;;;;5096323;28;20543;-57
2020/12/31 07:55:12;;;;;;;1.52;0.80;;;2.00;99.90;;;;;;5097626;28;20428;-55
2020/12/31 07:57:40;;;;;;;1.67;0.82;;;2.10;99.90;;;;;;5096731;28;20452;-56
2020/12/31 08:00:07;;;;;;;1.50;0.80;;;2.00;99.90;;;;;;5097279;28;20475;-57
2020/12/31 08:02:34;;;;;;;2.00;1.00;;;2.10;99.90;;;;;;5097230;28;20714;-54
2020/12/31 08:05:11;;;;;;;1.70;0.82;;;2.10;99.90;;;;;;5097481;28;20712;-56
2020/12/31 08:07:40;;;;;;;2.17;0.90;;;2.00;99.90;;;;;;5096139;28;20472;-57
2020/12/31 08:10:09;;;;;;;1.30;0.80;;;2.00;99.90;;;;;;5096885;28;20483;-57
2020/12/31 08:12:39;;;;;;;1.35;0.90;;;2.00;99.90;;;;;;5096405;28;20425;-57
2020/12/31 08:15:07;;;;;;;1.90;0.88;;;2.10;99.90;;;;;;5095951;28;20472;-57
2020/12/31 08:17:34;;;;;;;1.90;0.80;;;2.10;99.90;;;;;;5095414;28;20417;-57
2020/12/31 08:20:02;;;;;;;2.30;0.90;;;2.10;99.90;;;;;;5095967;28;20418;-56
2020/12/31 08:22:36;;;;;;;1.60;0.90;;;2.10;99.90;;;;;;5095853;28;20421;-56
2020/12/31 08:25:09;;;;;;;1.70;1.00;;;2.10;99.90;;;;;;5095264;28;20428;-53
2020/12/31 08:27:38;;;;;;;1.73;0.90;;;2.10;99.90;;;;;;5094712;28;20452;-56
2020/12/31 08:30:08;;;;;;;1.63;0.98;;;2.10;99.90;;;;;;5095652;28;20425;-58
2020/12/31 08:32:51;;;;;;;1.30;0.85;;;2.20;99.90;;;;;;5095831;28;20493;-55
2020/12/31 08:35:23;;;;;;;2.25;1.05;;;2.30;99.90;;;;;;5080737;28;20427;-57
2020/12/31 08:38:02;;;;;;;1.77;0.90;;;2.40;99.90;;;;;;5068364;28;20473;-56
2020/12/31 08:40:30;;;;;;;1.40;0.80;;;2.40;99.90;;;;;;5084120;28;20430;-59
2020/12/31 08:42:58;;;;;;;1.50;0.80;;;2.40;99.90;;;;;;5093931;28;20429;-57
2020/12/31 08:45:30;;;;;;;1.80;1.05;;;2.40;99.90;;;;;;5093574;28;20938;-56
2020/12/31 08:48:18;;;;;;;2.40;0.90;;;2.40;99.90;;;;;;5085058;28;20921;-56
2020/12/31 08:51:04;;;;;;;2.38;0.90;;;2.50;99.90;;;;;;5092282;28;20425;-57
2020/12/31 08:53:31;;;;;;;1.60;1.00;;;2.50;99.90;;;;;;5081295;28;20421;-56
2020/12/31 08:56:12;;;;;;;1.70;1.00;;;2.60;99.90;;;;;;5085075;28;20467;-56
2020/12/31 08:58:43;;;;;;;1.70;0.90;;;2.60;99.90;;;;;;5075482;28;20431;-56
2020/12/31 09:01:27;;;;;;;1.67;0.90;;;2.50;99.90;;;;;;5078118;28;20545;-55
2020/12/31 09:04:06;;;;;;;2.60;1.10;;;2.50;99.90;;;;;;5091822;28;20433;-57
2020/12/31 09:06:34;;;;;;;2.15;1.17;;;2.50;99.90;;;;;;5082398;28;20432;-55
2020/12/31 09:09:01;;;;;;;1.80;0.90;;;2.60;99.90;;;;;;5073607;28;20434;-55
2020/12/31 09:11:29;;;;;;;1.95;0.90;;;2.70;99.90;;;;;;5074391;28;20748;-56
2020/12/31 09:14:06;;;;;;;2.60;1.10;;;2.70;99.90;;;;;;5090487;28;20434;-54
2020/12/31 09:16:46;;;;;;;2.00;1.00;;;2.70;99.90;;;;;;5094022;28;20436;-56
2020/12/31 09:19:12;;;;;;;2.58;0.90;;;2.60;99.90;;;;;;5085487;28;20531;-56
2020/12/31 09:21:39;;;;;;;1.30;0.70;;;2.70;99.90;;;;;;5087513;28;20442;-56
2020/12/31 09:24:13;;;;;;;2.50;1.20;;;2.80;99.90;;;;;;5092921;28;20503;-61
2020/12/31 09:26:50;;;;;;;1.70;1.00;;;2.80;99.90;;;;;;5082363;28;20848;-56
2020/12/31 09:29:18;;;;;;;1.90;1.10;;;2.90;99.90;;;;;;5091246;28;20738;-56
2020/12/31 09:31:46;;;;;;;1.63;1.00;;;2.90;99.90;;;;;;5075140;28;20430;-57
2020/12/31 09:34:13;;;;;;;2.20;1.00;;;2.90;99.90;;;;;;5075283;28;20436;-57
2020/12/31 09:36:40;;;;;;;1.90;0.90;;;2.90;99.90;;;;;;5085020;28;20522;-57
2020/12/31 09:39:07;;;;;;;1.40;0.80;;;2.90;99.90;;;;;;5081383;28;20871;-57
2020/12/31 09:41:33;;;;;;;2.63;0.95;;;2.90;99.90;;;;;;5089935;28;20736;-57
2020/12/31 09:44:01;;;;;;;1.42;0.80;;;2.90;99.90;;;;;;5085818;28;20913;-55
2020/12/31 09:46:28;;;;;;;1.30;0.90;;;3.10;99.90;;;;;;5087683;28;20436;-56
2020/12/31 09:48:55;;;;;;;1.50;0.90;;;3.50;99.90;;;;;;5074491;28;20551;-55
2020/12/31 09:51:22;;;;;;;2.30;1.10;;;3.90;99.90;;;;;;5073589;28;20431;-52
2020/12/31 09:53:51;;;;;;;4.25;0.90;;;3.80;99.90;;;;;;5077738;28;20427;-56
2020/12/31 09:56:18;;;;;;;1.77;0.90;;;3.70;99.90;;;;;;5079539;28;20613;-56
2020/12/31 09:58:44;;;;;;;1.50;0.90;;;3.60;99.90;;;;;;5081441;28;20785;-55
2020/12/31 10:01:11;;;;;;;2.00;0.90;;;3.50;99.90;;;;;;5087969;28;20465;-56
2020/12/31 10:03:39;;;;;;;1.45;0.90;;;3.60;99.90;;;;;;5093714;28;20582;-57
2020/12/31 10:06:06;;;;;;;1.60;1.00;;;3.50;99.90;;;;;;5074245;28;20430;-58
2020/12/31 10:08:33;;;;;;;1.65;0.80;;;3.40;99.90;;;;;;5087306;28;20867;-56
2020/12/31 10:11:01;;;;;;;1.75;0.90;;;3.50;99.90;;;;;;5089728;28;20422;-55
2020/12/31 10:13:27;;;;;;;1.50;0.70;;;3.60;99.90;;;;;;5083087;28;20430;-58
2020/12/31 10:15:54;;;;;;;1.30;0.90;;;3.80;99.90;;;;;;5082199;28;20528;-57
2020/12/31 10:18:21;;;;;;;1.23;0.70;;;3.70;99.90;;;;;;5087208;28;20454;-57
2020/12/31 10:20:49;;;;;;;1.60;0.80;;;3.60;99.90;;;;;;5082330;28;20508;-56
2020/12/31 10:23:15;;;;;;;2.00;0.90;;;3.40;99.90;;;;;;5089441;28;20460;-57
2020/12/31 10:25:42;;;;;;;1.77;0.70;;;3.50;99.90;;;;;;5088227;28;20427;-57
2020/12/31 10:28:13;;;;;;;1.63;0.80;;;3.60;99.90;;;;;;5071808;28;20500;-58
2020/12/31 10:30:41;;;;;;;1.33;0.80;;;3.60;99.90;;;;;;5074590;28;20440;-57
2020/12/31 10:33:08;;;;;;;1.10;0.70;;;3.70;99.90;;;;;;5078991;28;20438;-57
2020/12/31 10:35:35;;;;;;;1.20;0.70;;;3.80;99.90;;;;;;5085191;28;20872;-58
2020/12/31 10:38:12;;;;;;;1.13;0.80;;;3.80;99.90;;;;;;5091536;28;20721;-56
2020/12/31 10:40:39;;;;;;;1.20;0.80;;;4.00;99.90;;;;;;5090941;28;20437;-57
2020/12/31 10:43:06;;;;;;;1.70;0.70;;;3.90;99.90;;;;;;5092828;28;20429;-57
2020/12/31 10:45:33;;;;;;;1.30;0.73;;;4.00;99.90;;;;;;5083408;28;20945;-54
2020/12/31 10:48:00;;;;;;;3.20;0.70;;;3.90;99.90;;;;;;5073936;28;20567;-57
2020/12/31 10:50:26;;;;;;;1.30;0.77;;;3.90;99.90;;;;;;5079091;28;20423;-56
2020/12/31 10:52:53;;;;;;;1.02;0.65;;;3.80;99.90;;;;;;5080082;28;20706;-52
2020/12/31 10:55:21;;;;;;;1.10;0.70;;;3.60;99.90;;;;;;5087431;28;20508;-53
2020/12/31 10:57:47;;;;;;;1.10;0.70;;;3.60;99.90;;;;;;5087617;28;20431;-54
2020/12/31 11:00:14;;;;;;;1.70;0.73;;;3.50;99.90;;;;;;5074495;28;20467;-54
2020/12/31 11:02:41;;;;;;;1.65;0.70;;;3.40;99.90;;;;;;5086896;28;20756;-55
2020/12/31 11:05:08;;;;;;;1.70;0.90;;;3.10;99.90;;;;;;5089749;28;20425;-55
2020/12/31 11:07:35;;;;;;;1.70;0.90;;;3.10;99.90;;;;;;5076857;28;20445;-52
2020/12/31 11:10:01;;;;;;;1.25;0.70;;;3.10;99.90;;;;;;5082742;28;20439;-53
2020/12/31 11:12:37;;;;;;;1.58;0.70;;;3.00;99.90;;;;;;5086966;28;20532;-54
2020/12/31 11:15:04;;;;;;;1.70;0.90;;;3.00;99.90;;;;;;5090482;28;20787;-48
2020/12/31 11:17:30;;;;;;;1.10;0.70;;;3.00;99.90;;;;;;5086586;28;20425;-49
2020/12/31 11:19:57;;;;;;;1.90;0.80;;;3.10;99.90;;;;;;5083477;28;20458;-53
2020/12/31 11:22:24;;;;;;;1.42;0.70;;;3.10;99.90;;;;;;5083147;28;20504;-49
2020/12/31 11:24:51;;;;;;;1.20;0.70;;;3.10;99.90;;;;;;5085314;28;20460;-55
2020/12/31 11:27:17;;;;;;;1.13;0.70;;;3.10;99.90;;;;;;5089848;28;20516;-54
2020/12/31 11:29:45;;;;;;;1.00;0.70;;;3.10;99.90;;;;;;5082344;28;20503;-51
2020/12/31 11:32:12;;;;;;;1.30;0.80;;;3.00;99.90;;;;;;5087775;28;20712;-53
2020/12/31 11:34:39;;;;;;;1.60;0.70;;;3.10;99.90;;;;;;5088096;28;20476;-56
2020/12/31 11:37:05;;;;;;;2.20;0.70;;;3.10;99.90;;;;;;5091619;28;20518;-56
2020/12/31 11:39:32;;;;;;;1.20;0.70;;;3.10;99.90;;;;;;5092575;28;20528;-53
2020/12/31 11:41:59;;;;;;;1.30;0.80;;;3.10;99.90;;;;;;5091457;28;20426;-56
2020/12/31 11:44:26;;;;;;;1.40;0.73;;;3.20;99.90;;;;;;5091668;28;20487;-55
2020/12/31 11:46:58;;;;;;;1.42;0.80;;;3.20;99.90;;;;;;5092059;28;20418;-55
2020/12/31 11:49:25;;;;;;;1.30;0.80;;;3.30;99.90;;;;;;5090024;28;20576;-54
2020/12/31 11:51:56;;;;;;;2.97;0.80;;;3.40;99.90;;;;;;5091088;28;20487;-56
2020/12/31 11:54:23;;;;;;;1.17;0.70;;;3.40;99.90;;;;;;5092208;28;20437;-57
2020/12/31 11:56:50;;;;;;;1.30;0.70;;;3.50;99.90;;;;;;5092320;28;20425;-54
2020/12/31 11:59:18;;;;;;;1.38;0.98;;;3.60;99.90;;;;;;5091843;28;20618;-57
2020/12/31 12:01:50;;;;;;;1.90;0.80;;;3.70;99.90;;;;;;5092493;28;20507;-58
2020/12/31 12:04:19;;;;;;;1.40;0.80;;;3.80;99.90;;;;;;5093208;28;20440;-58
2020/12/31 12:06:50;;;;;;;1.50;0.80;;;3.90;99.90;;;;;;5093333;28;20597;-58
2020/12/31 12:09:17;;;;;;;1.50;0.80;;;4.00;99.90;;;;;;5092155;28;21114;-57
2020/12/31 12:11:43;;;;;;;1.37;0.80;;;4.00;99.90;;;;;;5084878;28;20425;-57
2020/12/31 12:14:10;;;;;;;1.88;0.80;;;4.00;99.90;;;;;;5095569;28;20991;-58
2020/12/31 12:16:37;;;;;;;1.70;0.70;;;4.10;99.90;;;;;;5095910;28;20429;-58
2020/12/31 12:19:04;;;;;;;1.23;0.80;;;4.00;99.90;;;;;;5088231;28;20428;-58
2020/12/31 12:21:31;;;;;;;1.10;0.70;;;4.00;99.90;;;;;;5080779;28;20428;-58
2020/12/31 12:23:58;;;;;;;1.20;0.70;;;3.90;99.90;;;;;;5076112;28;20796;-57
2020/12/31 12:26:33;;;;;;;2.67;1.52;;;3.90;99.90;;;;;;5076026;28;20498;-58
2020/12/31 12:28:59;;;;;;;5.35;2.78;;;3.90;99.90;;;;;;5074875;28;20423;-57
2020/12/31 12:31:33;;;;;;;1.50;0.88;;;4.00;99.90;;;;;;5075626;28;20427;-58
2020/12/31 12:34:00;;;;;;;1.50;0.80;;;4.00;99.90;;;;;;5075193;28;20435;-59
2020/12/31 12:36:27;;;;;;;1.48;0.80;;;3.90;99.90;;;;;;5074569;28;20431;-57
2020/12/31 12:38:54;;;;;;;1.20;0.80;;;3.80;99.90;;;;;;5073719;28;20450;-58
2020/12/31 12:41:23;;;;;;;1.20;0.70;;;3.80;99.90;;;;;;5075168;28;20498;-57
2020/12/31 12:43:50;;;;;;;1.55;0.70;;;3.90;99.90;;;;;;5075466;28;20420;-57
2020/12/31 12:46:20;;;;;;;1.20;0.80;;;3.80;99.90;;;;;;5074990;28;20455;-57
2020/12/31 12:48:47;;;;;;;1.20;0.80;;;3.80;99.90;;;;;;5075984;28;20560;-57
2020/12/31 12:51:15;;;;;;;1.20;0.70;;;3.90;99.90;;;;;;5076306;28;20493;-58
2020/12/31 12:53:42;;;;;;;1.27;0.80;;;3.90;99.90;;;;;;5074537;28;20434;-59
2020/12/31 12:56:12;;;;;;;1.20;0.80;;;4.00;99.90;;;;;;5074594;28;21028;-58
2020/12/31 12:58:39;;;;;;;1.30;0.70;;;4.10;99.90;;;;;;5073905;28;20731;-58
2020/12/31 13:01:06;;;;;;;2.20;0.70;;;4.10;99.90;;;;;;5074913;28;20423;-58
2020/12/31 13:03:33;;;;;;;1.20;0.70;;;4.10;99.90;;;;;;5075047;28;20423;-57
2020/12/31 13:05:59;;;;;;;1.13;0.70;;;4.10;99.90;;;;;;5074277;28;20526;-58